Terminal Aerodrome Forecast
Issued by NWS Burlington, VT

Home | Current Version | Previous Version | Text Only | Print | Product List | Glossary On
Versions: 1 2 3 4 5 6 7 8 9 10 11 12 13 14 15 16 17 18 19 20
000
FTUS41 KBTV 030200 AAA
TAFBTV
TAF AMD
KBTV 030204Z 0302/0324 04006KT 6SM -RA BR OVC018
      TEMPO 0302/0304 34006KT 4SM RA BR
     FM030400 32009KT P6SM -SHRA BKN025 OVC050
     FM030600 VRB04KT P6SM BKN050
     FM031200 27007KT P6SM SCT050
     FM031600 20010G17KT P6SM SCT050=

USA.gov is the U.S. government's official web portal to all federal, state and local government web resources and services.